Flight Track Log - Related Links

Times and Time Zones

All times are in EDT time to prevent confusion due to time zone crossing. See the N125GH flight status page for this flight to view local times or setup timezone preferences in your user account.

Time Position Orientation Groundspeed Altitude Reporting Facility
EDT Latitude Longitude Course Direction KTS MPH feet Rate Location/Type
08:30AM 54.8661 -18.1214 293° West  Level Estimated
08:31AM 54.8841 -18.3334 279° West  Level Estimated
08:32AM 54.9018 -18.5456 278° West  Level Estimated
08:33AM 54.9191 -18.7579 278° West  Level Estimated
08:34AM 54.9360 -18.9704 278° West  Level Estimated
08:35AM 54.9526 -19.1831 278° West  Level Estimated
08:36AM 54.9688 -19.3960 278° West  Level Estimated
08:37AM 54.9846 -19.6091 277° West  Level Estimated
08:38AM 55.0000 -19.8223 277° West  Level Estimated
08:39AM 55.0151 -20.0357 277° West  Level Estimated
08:40AM 55.0298 -20.2492 277° West  Level Estimated
08:41AM 55.0441 -20.4629 277° West  Level Estimated
08:42AM 55.0581 -20.6767 277° West  Level Estimated
08:43AM 55.0717 -20.8907 276° West  Level Estimated
08:44AM 55.0849 -21.1048 276° West  Level Estimated
08:45AM 55.0977 -21.3191 276° West  Level Estimated
08:46AM 55.1101 -21.5335 276° West  Level Estimated
08:47AM 55.1222 -21.7481 276° West  Level Estimated
08:48AM 55.1339 -21.9627 276° West  Level Estimated
08:49AM 55.1452 -22.1775 275° West  Level Estimated
08:50AM 55.1562 -22.3924 275° West  Level Estimated
08:51AM 55.1667 -22.6074 275° West  Level Estimated
08:52AM 55.1769 -22.8226 275° West  Level Estimated
08:53AM 55.1867 -23.0378 275° West  Level Estimated
08:54AM 55.1962 -23.2532 274° West  Level Estimated
08:55AM 55.2052 -23.4686 274° West  Level Estimated
08:56AM 55.2139 -23.6842 274° West  Level Estimated
08:56AM 59.0000 -20.0000 296° West 461 531 43,000  Level ETMS Enhanced Traffic Management System
08:57AM 55.2222 -23.8998 274° West  Level Estimated
08:58AM 55.2301 -24.1155 274° West  Level Estimated
08:59AM 55.2376 -24.3313 274° West  Level Estimated
09:00AM 55.2447 -24.5472 273° West  Level Estimated
09:01AM 55.2515 -24.7632 273° West  Level Estimated
09:02AM 59.4909 -22.0393 294° West 461 531 43,000  Level FlightAware Transoceanic
09:03AM 59.5435 -22.2694 294° West 461 531 43,000  Level FlightAware Transoceanic
09:04AM 59.5956 -22.5004 294° West 461 531 43,000  Level FlightAware Transoceanic
09:05AM 59.6474 -22.7320 294° West 461 531 43,000  Level FlightAware Transoceanic
09:06AM 59.6987 -22.9643 294° West 461 531 43,000  Level FlightAware Transoceanic
09:07AM 59.7496 -23.1974 293° West 461 531 43,000  Level FlightAware Transoceanic
09:08AM 59.8002 -23.4312 293° West 461 531 43,000  Level FlightAware Transoceanic
09:09AM 59.8503 -23.6656 293° West 461 531 43,000  Level FlightAware Transoceanic
09:10AM 59.8999 -23.9008 293° West 461 531 43,000  Level FlightAware Transoceanic
09:11AM 59.9492 -24.1367 293° West 461 531 43,000  Level FlightAware Transoceanic
09:12AM 59.9980 -24.3732 292° West 461 531 43,000  Level FlightAware Transoceanic
09:13AM 60.0464 -24.6105 292° West 461 531 43,000  Level FlightAware Transoceanic
09:14AM 60.0944 -24.8484 292° West 461 531 43,000  Level FlightAware Transoceanic
09:15AM 60.1420 -25.0871 292° West 461 531 43,000  Level FlightAware Transoceanic
09:16AM 60.1891 -25.3264 291° West 461 531 43,000  Level FlightAware Transoceanic
09:17AM 60.2358 -25.5665 291° West 461 531 43,000  Level FlightAware Transoceanic
09:18AM 60.2821 -25.8072 291° West 461 531 43,000  Level FlightAware Transoceanic
09:19AM 60.3279 -26.0486 291° West 461 531 43,000  Level FlightAware Transoceanic
09:20AM 60.3732 -26.2906 291° West 461 531 43,000  Level FlightAware Transoceanic
09:21AM 60.4182 -26.5333 290° West 461 531 43,000  Level FlightAware Transoceanic
09:22AM 60.4627 -26.7768 290° West 461 531 43,000  Level FlightAware Transoceanic
09:23AM 60.5067 -27.0208 290° West 461 531 43,000  Level FlightAware Transoceanic
09:24AM 60.5504 -27.2655 290° West 461 531 43,000  Level FlightAware Transoceanic
09:25AM 60.5935 -27.5109 290° West 461 531 43,000  Level FlightAware Transoceanic
09:26AM 60.6362 -27.7570 289° West 461 531 43,000  Level FlightAware Transoceanic
09:27AM 60.6785 -28.0037 289° West 461 531 43,000  Level FlightAware Transoceanic
09:28AM 60.7203 -28.2510 289° West 461 531 43,000  Level FlightAware Transoceanic
09:29AM 60.7616 -28.4989 289° West 461 531 43,000  Level FlightAware Transoceanic
09:30AM 60.8025 -28.7476 289° West 461 531 43,000  Level FlightAware Transoceanic
09:31AM 60.8429 -28.9968 288° West 461 531 43,000  Level FlightAware Transoceanic
09:32AM 60.8829 -29.2467 288° West 461 531 43,000  Level FlightAware Transoceanic
09:33AM 60.9224 -29.4972 288° West 461 531 43,000  Level FlightAware Transoceanic
09:34AM 60.9614 -29.7483 288° West 461 531 43,000  Level FlightAware Transoceanic
09:35AM 60.9986 -29.9906 288° West  Level FlightAware Approximate
09:36AM 61.0353 -30.2335 287° West  Level FlightAware Approximate
09:36AM 61.0000 -30.0000 274° West 484 557 43,000  Level ETMS Enhanced Traffic Management System
09:37AM 61.0074 -30.2342 274° West  Level FlightAware Approximate
09:38AM 61.0149 -30.4881 274° West  Level FlightAware Approximate
09:39AM 61.0220 -30.7421 273° West  Level FlightAware Approximate
09:40AM 61.0286 -30.9963 273° West  Level FlightAware Approximate
09:41AM 61.0347 -31.2505 273° West  Level FlightAware Approximate
09:42AM 61.0639 -32.2185 272° West 484 557 43,000  Level FlightAware Transoceanic
09:43AM 61.0694 -32.4963 272° West 484 557 43,000  Level FlightAware Transoceanic
09:44AM 61.0742 -32.7743 272° West 484 557 43,000  Level FlightAware Transoceanic
09:45AM 61.0785 -33.0523 272° West 484 557 43,000  Level FlightAware Transoceanic
09:46AM 61.0822 -33.3304 271° West 484 557 43,000  Level FlightAware Transoceanic
09:47AM 61.0854 -33.6086 271° West 484 557 43,000  Level FlightAware Transoceanic
09:48AM 61.0880 -33.8868 271° West 484 557 43,000  Level FlightAware Transoceanic
09:49AM 61.0900 -34.1651 271° West 484 557 43,000  Level FlightAware Transoceanic
09:50AM 61.0914 -34.4434 270° West 484 557 43,000  Level FlightAware Transoceanic
09:51AM 61.0923 -34.7217 270° West 484 557 43,000  Level FlightAware Transoceanic
09:52AM 61.0925 -35.0000 270° West 484 557 43,000  Level FlightAware Transoceanic
09:53AM 61.0923 -35.2783 270° West 484 557 43,000  Level FlightAware Transoceanic
09:54AM 61.0914 -35.5566 270° West 484 557 43,000  Level FlightAware Transoceanic
09:55AM 61.0900 -35.8349 269° West 484 557 43,000  Level FlightAware Transoceanic
09:56AM 61.0880 -36.1132 269° West 484 557 43,000  Level FlightAware Transoceanic
09:57AM 61.0854 -36.3914 269° West 484 557 43,000  Level FlightAware Transoceanic
09:58AM 61.0822 -36.6696 269° West 484 557 43,000  Level FlightAware Transoceanic
09:59AM 61.0785 -36.9477 268° West 484 557 43,000  Level FlightAware Transoceanic
10:00AM 61.0742 -37.2257 268° West 484 557 43,000  Level FlightAware Transoceanic
10:01AM 61.0694 -37.5037 268° West 484 557 43,000  Level FlightAware Transoceanic
10:02AM 61.0639 -37.7815 268° West 484 557 43,000  Level FlightAware Transoceanic
10:03AM 61.0579 -38.0593 267° West 484 557 43,000  Level FlightAware Transoceanic
10:04AM 61.0514 -38.3369 267° West 484 557 43,000  Level FlightAware Transoceanic
10:05AM 61.0442 -38.6145 267° West 484 557 43,000  Level FlightAware Transoceanic
10:06AM 61.0365 -38.8919 267° West 484 557 43,000  Level FlightAware Transoceanic
10:07AM 61.0282 -39.1691 266° West 484 557 43,000  Level FlightAware Transoceanic
10:08AM 61.0194 -39.4463 266° West 484 557 43,000  Level FlightAware Transoceanic
10:09AM 61.0100 -39.7232 266° West 484 557 43,000  Level FlightAware Transoceanic
10:10AM 61.0009 -39.9769 266° West  Level FlightAware Approximate
10:11AM 60.9912 -40.2304 266° West  Level FlightAware Approximate
10:12AM 60.9874 -40.2062 263° West  Level FlightAware Approximate
10:13AM 60.9715 -40.4583 263° West  Level FlightAware Approximate
10:14AM 60.9552 -40.7100 263° West  Level FlightAware Approximate
10:14AM 61.0000 -40.0000 263° West 463 533 43,000  Level ETMS Enhanced Traffic Management System
10:15AM 60.9384 -40.9616 262° West  Level FlightAware Approximate
10:16AM 60.9212 -41.2128 262° West  Level FlightAware Approximate
10:17AM 60.9034 -41.4638 262° West  Level FlightAware Approximate
10:18AM 60.8853 -41.7145 262° West  Level FlightAware Approximate
10:19AM 60.8666 -41.9649 261° West  Level FlightAware Approximate
10:20AM 60.8155 -42.6199 261° West 463 533 43,000  Level FlightAware Transoceanic
10:21AM 60.7942 -42.8801 260° West 463 533 43,000  Level FlightAware Transoceanic
10:22AM 60.7725 -43.1400 260° West 463 533 43,000  Level FlightAware Transoceanic
10:23AM 60.7503 -43.3996 260° West 463 533 43,000  Level FlightAware Transoceanic
10:24AM 60.7275 -43.6587 260° West 463 533 43,000  Level FlightAware Transoceanic
10:25AM 60.7043 -43.9175 259° West 463 533 43,000  Level FlightAware Transoceanic
10:26AM 60.6805 -44.1759 259° West 463 533 43,000  Level FlightAware Transoceanic
10:27AM 60.6563 -44.4340 259° West 463 533 43,000  Level FlightAware Transoceanic
10:28AM 60.6315 -44.6916 259° West 463 533 43,000  Level FlightAware Transoceanic
10:29AM 60.6063 -44.9488 259° West 463 533 43,000  Level FlightAware Transoceanic
10:30AM 60.5806 -45.2057 258° West 463 533 43,000  Level FlightAware Transoceanic
10:31AM 60.5544 -45.4621 258° West 463 533 43,000  Level FlightAware Transoceanic
10:32AM 60.5277 -45.7181 258° West 463 533 43,000  Level FlightAware Transoceanic
10:33AM 60.5005 -45.9737 258° West 463 533 43,000  Level FlightAware Transoceanic
10:34AM 60.4728 -46.2288 257° West 463 533 43,000  Level FlightAware Transoceanic
10:35AM 60.4446 -46.4836 257° West 463 533 43,000  Level FlightAware Transoceanic
10:36AM 60.4160 -46.7378 257° West 463 533 43,000  Level FlightAware Transoceanic
10:37AM 60.3868 -46.9916 257° West 463 533 43,000  Level FlightAware Transoceanic
10:38AM 60.3572 -47.2450 257° West 463 533 43,000  Level FlightAware Transoceanic
10:39AM 60.3271 -47.4979 256° West 463 533 43,000  Level FlightAware Transoceanic
10:40AM 60.2965 -47.7503 256° West 463 533 43,000  Level FlightAware Transoceanic
10:41AM 60.2655 -48.0022 256° West 463 533 43,000  Level FlightAware Transoceanic
10:42AM 60.2339 -48.2537 256° West 463 533 43,000  Level FlightAware Transoceanic
10:43AM 60.2019 -48.5047 255° West 463 533 43,000  Level FlightAware Transoceanic
10:44AM 60.1694 -48.7552 255° West 463 533 43,000  Level FlightAware Transoceanic
10:45AM 60.1365 -49.0051 255° West 463 533 43,000  Level FlightAware Transoceanic
10:46AM 60.1031 -49.2546 255° West 463 533 43,000  Level FlightAware Transoceanic
10:47AM 60.0692 -49.5036 255° West 463 533 43,000  Level FlightAware Transoceanic
10:48AM 60.0348 -49.7521 254° West 463 533 43,000  Level FlightAware Transoceanic
10:49AM 60.0015 -49.9896 254° West  Level FlightAware Approximate
10:50AM 59.9678 -50.2267 254° West  Level FlightAware Approximate
10:51AM 59.9865 -50.2232 263° West  Level FlightAware Approximate
10:51AM 60.0000 -50.0000 263° West 453 521 43,000  Level ETMS Enhanced Traffic Management System
10:51AM 60.0000 -50.0000 263° West 453 521 43,000  Level ETMS Enhanced Traffic Management System
10:52AM 59.9712 -50.4678 263° West  Level FlightAware Approximate
10:53AM 59.9555 -50.7121 263° West  Level FlightAware Approximate
10:54AM 59.9394 -50.9561 263° West  Level FlightAware Approximate
10:55AM 59.9228 -51.2000 262° West  Level FlightAware Approximate
10:56AM 59.9057 -51.4435 262° West  Level FlightAware Approximate
10:57AM 59.8654 -51.9946 261° West 453 521 43,000  Level FlightAware Transoceanic
10:58AM 59.8465 -52.2428 261° West 453 521 43,000  Level FlightAware Transoceanic
10:59AM 59.8271 -52.4906 261° West 453 521 43,000  Level FlightAware Transoceanic
11:00AM 59.8072 -52.7382 261° West 453 521 43,000  Level FlightAware Transoceanic
11:01AM 59.7869 -52.9854 261° West 453 521 43,000  Level FlightAware Transoceanic
11:02AM 59.7661 -53.2324 260° West 453 521 43,000  Level FlightAware Transoceanic
11:03AM 59.7448 -53.4790 260° West 453 521 43,000  Level FlightAware Transoceanic
11:04AM 59.7231 -53.7254 260° West 453 521 43,000  Level FlightAware Transoceanic
11:05AM 59.7009 -53.9714 260° West 453 521 43,000  Level FlightAware Transoceanic
11:06AM 59.6783 -54.2171 260° West 453 521 43,000  Level FlightAware Transoceanic
11:07AM 59.6552 -54.4624 259° West 453 521 43,000  Level FlightAware Transoceanic
11:08AM 59.6316 -54.7074 259° West 453 521 43,000  Level FlightAware Transoceanic
11:09AM 59.6076 -54.9521 259° West 453 521 43,000  Level FlightAware Transoceanic
11:10AM 59.5831 -55.1964 259° West 453 521 43,000  Level FlightAware Transoceanic
11:11AM 59.5582 -55.4403 258° West 453 521 43,000  Level FlightAware Transoceanic
11:11AM 59.5667 -55.3000 257° West 450 518 43,000  Level Gander Center
11:12AM 59.5328 -55.6839 258° West 453 521 43,000  Level FlightAware Transoceanic
11:12AM 59.5333 -55.5000 252° West 450 518 43,000  Level Gander Center
11:13AM 59.5070 -55.9271 258° West 453 521 43,000  Level FlightAware Transoceanic
11:13AM 59.5167 -55.7667 263° West 450 518 43,000  Level Gander Center
11:14AM 59.4807 -56.1699 258° West 453 521 43,000  Level FlightAware Transoceanic
11:14AM 59.4833 -56.0000 254° West 450 518 43,000  Level Gander Center
11:15AM 59.4540 -56.4124 258° West 453 521 43,000  Level FlightAware Transoceanic
11:15AM 59.4667 -56.2667 263° West 460 529 43,000  Level Gander Center
11:16AM 59.4268 -56.6545 257° West 453 521 43,000  Level FlightAware Transoceanic
11:16AM 59.4333 -56.4000 244° Southwest 460 529 43,000  Level Gander Center
11:17AM 59.4167 -56.6333 262° West 460 529 43,000  Level Gander Center
11:18AM 59.3833 -57.0000 260° West 460 529 43,000  Level Gander Center
11:19AM 59.3667 -57.2333 262° West 460 529 43,000  Level Gander Center
11:20AM 59.3333 -57.4667 254° West 450 518 43,000  Level Gander Center
11:21AM 59.3000 -57.7333 256° West 460 529 43,000  Level Gander Center
11:22AM 59.2667 -57.9667 254° West 460 529 43,000  Level Gander Center
11:23AM 59.2333 -58.1833 253° West 460 529 43,000  Level Gander Center
11:24AM 59.2000 -58.4167 255° West 450 518 43,000  Level Gander Center
11:25AM 59.2000 -58.5833 270° West 450 518 43,000  Level Gander Center
11:26AM 59.1667 -58.8167 255° West 450 518 43,000  Level Gander Center
11:27AM 59.1333 -59.0500 255° West 450 518 43,000  Level Gander Center
11:28AM 59.1000 -59.2667 253° West 450 518 43,000  Level Gander Center
11:29AM 59.0500 -59.5333 250° West 450 518 43,000  Level Gander Center
11:30AM 59.0333 -59.7667 262° West 450 518 43,000  Level Gander Center
11:31AM 58.9833 -60.0833 253° West 450 518 43,000  Level Gander Center
11:32AM 58.9167 -60.2833 237° Southwest 460 529 43,000  Level Gander Center
11:33AM 58.8667 -60.4167 234° Southwest 460 529 43,000  Level Gander Center
11:34AM 58.8167 -60.6333 246° West 460 529 43,000  Level Gander Center
11:35AM 58.7500 -60.8667 241° Southwest 450 518 43,000  Level Gander Center
11:36AM 58.6833 -61.0833 239° Southwest 460 529 43,000  Level Gander Center
11:37AM 58.6167 -61.2833 237° Southwest 460 529 43,000  Level Gander Center
11:37AM 58.5833 -61.3667 233° Southwest 460 529 43,000  Level Montreal Center
11:38AM 58.5333 -61.6000 248° West 460 529 43,000  Level Gander Center
11:39AM 58.5000 -61.7333 244° Southwest 460 529 43,000  Level Gander Center
11:40AM 58.4333 -61.9167 235° Southwest 450 518 43,000  Level Gander Center
11:41AM 58.3667 -62.1333 240° Southwest 460 529 43,000  Level Gander Center
11:42AM 58.2833 -62.4167 241° Southwest 460 529 43,000  Level Gander Center
11:43AM 58.2167 -62.6500 242° Southwest 460 529 43,000  Level Gander Center
11:44AM 58.1500 -62.8333 235° Southwest 450 518 43,000  Level Gander Center
11:45AM 58.1167 -62.9500 242° Southwest 450 518 43,000  Level Gander Center
11:46AM 58.0333 -63.1333 229° Southwest 450 518 43,000  Level Gander Center
11:47AM 57.9667 -63.3333 238° Southwest 450 518 43,000  Level Gander Center
11:48AM 57.9000 -63.5333 238° Southwest 450 518 43,000  Level Gander Center
11:48AM 57.8667 -63.5833 219° Southwest 450 518 43,000  Level Montreal Center
11:49AM 57.8000 -63.8000 240° Southwest 450 518 43,000  Level Montreal Center
11:50AM 57.7500 -64.0000 245° Southwest 450 518 43,000  Level Gander Center
11:51AM 57.6667 -64.2167 234° Southwest 460 529 43,000  Level Gander Center
11:52AM 57.6000 -64.4000 236° Southwest 460 529 43,000  Level Gander Center
11:53AM 57.5167 -64.6000 232° Southwest 450 518 43,000  Level Gander Center
11:54AM 57.4500 -64.7833 236° Southwest 450 518 43,000  Level Gander Center
11:55AM 57.3833 -65.0000 240° Southwest 450 518 43,000  Level Gander Center
11:56AM 57.3167 -65.1667 234° Southwest 450 518 43,000  Level Gander Center
11:57AM 57.2333 -65.3500 230° Southwest 450 518 43,000  Level Gander Center
11:58AM 57.1667 -65.5667 240° Southwest 450 518 43,000  Level Gander Center
11:59AM 57.1000 -65.7333 234° Southwest 450 518 43,000  Level Gander Center
12:00PM 57.0167 -65.9167 230° Southwest 450 518 43,000  Level Gander Center
12:01PM 56.9500 -66.1167 239° Southwest 450 518 43,000  Level Gander Center
12:02PM 56.8667 -66.3000 230° Southwest 450 518 43,000  Level Gander Center
12:03PM 56.8000 -66.5000 239° Southwest 460 529 43,000  Level Gander Center
12:04PM 56.7167 -66.6667 228° Southwest 450 518 43,000  Level Gander Center
12:05PM 56.6500 -66.8667 239° Southwest 450 518 43,000  Level Gander Center
12:06PM 56.5667 -67.0667 233° Southwest 460 529 43,000  Level Gander Center
12:07PM 56.5000 -67.2500 237° Southwest 460 529 43,000  Level Gander Center
12:08PM 56.4167 -67.4167 228° Southwest 450 518 43,000  Level Gander Center
12:09PM 56.3500 -67.6167 239° Southwest 460 529 43,000  Level Gander Center
12:10PM 56.2667 -67.7833 228° Southwest 450 518 43,000  Level Gander Center
12:11PM 56.2000 -67.9500 234° Southwest 450 518 43,000  Level Gander Center
12:12PM 56.1167 -68.1500 233° Southwest 460 529 43,000  Level Gander Center
12:13PM 56.0500 -68.3167 234° Southwest 440 506 43,000  Level Gander Center
12:14PM 55.9833 -68.4833 234° Southwest 450 518 43,000  Level Gander Center
12:15PM 55.8833 -68.6833 228° Southwest 450 518 43,000  Level Gander Center
12:16PM 55.8167 -68.8333 232° Southwest 450 518 43,000  Level Gander Center
12:17PM 55.7500 -69.0333 239° Southwest 450 518 43,000  Level Gander Center
12:18PM 55.6667 -69.2000 228° Southwest 450 518 43,000  Level Gander Center
12:19PM 55.6000 -69.3667 235° Southwest 450 518 43,000  Level Gander Center
12:20PM 55.5167 -69.5500 231° Southwest 450 518 43,000  Level Gander Center
12:21PM 55.4333 -69.7167 229° Southwest 450 518 43,000  Level Gander Center
12:22PM 55.3500 -69.8833 229° Southwest 450 518 43,000  Level Gander Center
12:23PM 55.2833 -70.0667 237° Southwest 440 506 43,000  Level Gander Center
12:24PM 55.2000 -70.2333 229° Southwest 440 506 43,000  Level Gander Center
12:25PM 55.1333 -70.3833 232° Southwest 440 506 43,000  Level Gander Center
12:26PM 55.0500 -70.5500 229° Southwest 440 506 43,000  Level Gander Center
12:27PM 54.9833 -70.7333 238° Southwest 440 506 43,000  Level Gander Center
12:28PM 54.9000 -70.8833 226° Southwest 440 506 43,000  Level Gander Center
12:29PM 54.8167 -71.0500 229° Southwest 440 506 43,000  Level Gander Center
12:30PM 54.7333 -71.2333 232° Southwest 440 506 43,000  Level Gander Center
12:31PM 54.6500 -71.3833 226° Southwest 450 518 43,000  Level Gander Center
12:32PM 54.5667 -71.5333 226° Southwest 450 518 43,000  Level Gander Center
12:33PM 54.5000 -71.7000 235° Southwest 450 518 43,000  Level Gander Center
12:34PM 54.4333 -71.8833 238° Southwest 450 518 43,000  Level Gander Center
12:35PM 54.3500 -72.0333 226° Southwest 450 518 43,000  Level Gander Center
12:36PM 54.2500 -72.2167 227° Southwest 440 506 43,000  Level Gander Center
12:37PM 54.1833 -72.3667 233° Southwest 440 506 43,000  Level Gander Center
12:38PM 54.1000 -72.5167 227° Southwest 440 506 43,000  Level Gander Center
12:39PM 54.0167 -72.7000 232° Southwest 440 506 43,000  Level Gander Center
12:40PM 53.9333 -72.8500 227° Southwest 440 506 43,000  Level Gander Center
12:41PM 53.8500 -73.0000 227° Southwest 440 506 43,000  Level Gander Center
12:42PM 53.7667 -73.1500 227° Southwest 440 506 43,000  Level Gander Center
12:43PM 53.7000 -73.3000 233° Southwest 440 506 43,000  Level Gander Center
12:44PM 53.6167 -73.4500 227° Southwest 440 506 43,000  Level Gander Center
12:45PM 53.5333 -73.6167 230° Southwest 440 506 43,000  Level Gander Center
12:46PM 53.4500 -73.7667 227° Southwest 440 506 43,000  Level Gander Center
12:47PM 53.3667 -73.9167 227° Southwest 440 506 43,000  Level Gander Center
12:48PM 53.2833 -74.0500 224° Southwest 440 506 43,000  Level Montreal Center
12:49PM 53.2167 -74.2000 233° Southwest 440 506 43,000  Level Montreal Center
12:50PM 53.1333 -74.3333 224° Southwest 430 495 43,000  Level Montreal Center
12:51PM 53.0500 -74.4833 227° Southwest 440 506 43,000  Level Montreal Center
12:52PM 52.9667 -74.6500 230° Southwest 440 506 43,000  Level Montreal Center
12:53PM 52.8833 -74.8000 227° Southwest 440 506 43,000  Level Montreal Center
12:54PM 52.7833 -74.9667 225° Southwest 440 506 43,000  Level Montreal Center
12:55PM 52.7000 -75.1000 224° Southwest 440 506 43,000  Level Montreal Center
12:56PM 52.6167 -75.2500 228° Southwest 440 506 43,000 100 Level Montreal Center
12:57PM 52.5333 -75.4167 231° Southwest 440 506 43,200 350 Climbing Montreal Center
12:58PM 52.4500 -75.5500 224° Southwest 440 506 43,700 500 Climbing Montreal Center
12:59PM 52.3667 -75.6833 224° Southwest 440 506 44,200 500 Climbing Montreal Center
01:00PM 52.2833 -75.8333 228° Southwest 430 495 44,700 500 Climbing Montreal Center
01:01PM 52.2000 -76.0000 231° Southwest 430 495 45,200 500 Climbing Montreal Center
01:02PM 52.1167 -76.1333 225° Southwest 430 495 45,700 500 Climbing Montreal Center
01:03PM 52.0333 -76.2667 225° Southwest 440 506 46,200 450 Climbing Montreal Center
01:04PM 51.9500 -76.4000 225° Southwest 440 506 46,600 400 Climbing Montreal Center
01:05PM 51.8500 -76.5667 226° Southwest 430 495 47,000 200 Climbing Montreal Center
01:06PM 51.7667 -76.7000 225° Southwest 440 506 47,000  Level Montreal Center
01:07PM 51.6833 -76.8333 225° Southwest 440 506 47,000  Level Montreal Center
01:08PM 51.6000 -77.0000 231° Southwest 440 506 47,000  Level Montreal Center
01:09PM 51.5167 -77.1333 225° Southwest 450 518 47,000  Level Montreal Center
01:10PM 51.4333 -77.2667 225° Southwest 440 506 47,000  Level Montreal Center
01:11PM 51.3500 -77.4167 228° Southwest 440 506 47,000  Level Montreal Center
01:12PM 51.2667 -77.5500 225° Southwest 450 518 47,000  Level Montreal Center
01:13PM 51.1500 -77.7167 222° Southwest 450 518 47,000  Level Montreal Center
01:14PM 51.0667 -77.8333 221° Southwest 440 506 47,000  Level Montreal Center
01:15PM 50.9833 -78.0000 232° Southwest 440 506 47,000  Level Montreal Center
01:16PM 50.9000 -78.1333 225° Southwest 450 518 47,000  Level Montreal Center
01:17PM 50.8167 -78.2500 222° Southwest 450 518 47,000  Level Montreal Center
01:18PM 50.7167 -78.4167 227° Southwest 440 506 47,000  Level Montreal Center
01:19PM 50.6333 -78.5333 222° Southwest 440 506 47,000  Level Montreal Center
01:20PM 50.5500 -78.6667 225° Southwest 450 518 47,000  Level Montreal Center
01:21PM 50.4667 -78.8167 229° Southwest 450 518 47,000  Level Montreal Center
01:22PM 50.3667 -78.9500 220° Southwest 440 506 47,000  Level Montreal Center
01:23PM 50.2667 -79.1000 224° Southwest 440 506 47,000  Level Montreal Center
01:24PM 50.1833 -79.2167 222° Southwest 450 518 47,000  Level Montreal Center
01:25PM 50.1000 -79.3500 226° Southwest 450 518 47,000  Level Montreal Center
01:26PM 50.0000 -79.5000 224° Southwest 450 518 47,000  Level Montreal Center
01:27PM 49.9167 -79.6167 222° Southwest 440 506 47,000  Level Montreal Center
01:28PM 49.8333 -79.7667 229° Southwest 450 518 47,000  Level Montreal Center
01:29PM 49.7167 -79.9000 216° Southwest 450 518 47,000  Level Montreal Center
01:30PM 49.6333 -80.0167 222° Southwest 450 518 47,000  Level Montreal Center
01:31PM 49.5667 -80.1000 219° Southwest 450 518 47,000  Level Toronto Center
01:32PM 49.4833 -80.2167 222° Southwest 450 518 47,000  Level Toronto Center
01:33PM 49.3833 -80.3500 221° Southwest 460 529 47,000  Level Toronto Center
01:34PM 49.3000 -80.5000 230° Southwest 450 518 47,000  Level Toronto Center
01:35PM 49.2167 -80.6167 222° Southwest 450 518 47,000  Level Toronto Center
01:36PM 49.1167 -80.7500 221° Southwest 450 518 47,000  Level Toronto Center
01:37PM 49.0000 -80.8667 213° Southwest 450 518 47,000  Level Toronto Center
01:38PM 48.9167 -81.0000 226° Southwest 450 518 47,000  Level Toronto Center
01:39PM 48.8333 -81.1167 223° Southwest 460 529 47,000  Level Toronto Center
01:40PM 48.7333 -81.2667 225° Southwest 450 518 47,000  Level Toronto Center
01:41PM 48.6500 -81.4000 227° Southwest 450 518 47,000  Level Toronto Center
01:42PM 48.5500 -81.5167 218° Southwest 450 518 47,000  Level Toronto Center
01:43PM 48.4667 -81.6333 223° Southwest 450 518 47,000  Level Toronto Center
01:44PM 48.3667 -81.7833 225° Southwest 460 529 47,000  Level Toronto Center
01:45PM 48.2833 -81.9167 227° Southwest 450 518 47,000  Level Toronto Center
01:46PM 48.1667 -82.0333 214° Southwest 460 529 47,000  Level Toronto Center
01:47PM 48.0833 -82.1500 223° Southwest 450 518 47,000  Level Toronto Center
01:48PM 47.9833 -82.3000 225° Southwest 460 529 47,000  Level Toronto Center
01:49PM 47.9000 -82.4167 223° Southwest 450 518 47,000  Level Toronto Center
01:50PM 47.8000 -82.5333 218° Southwest 450 518 47,000  Level Toronto Center
01:51PM 47.7167 -82.6500 223° Southwest 450 518 47,000  Level Toronto Center
01:52PM 47.6000 -82.7667 214° Southwest 450 518 47,000  Level Toronto Center
01:53PM 47.5000 -82.8833 218° Southwest 460 529 47,000  Level Toronto Center
01:54PM 47.4000 -82.9833 214° Southwest 460 529 47,000  Level Toronto Center
01:55PM 47.3000 -83.0667 209° Southwest 450 518 47,000  Level Toronto Center
01:56PM 47.2000 -83.1667 214° Southwest 450 518 47,000  Level Toronto Center
01:57PM 47.0833 -83.2833 214° Southwest 450 518 47,000  Level Toronto Center
01:58PM 46.9667 -83.3667 206° Southwest 450 518 47,000  Level Toronto Center
01:59PM 46.8667 -83.4667 214° Southwest 450 518 47,000  Level Toronto Center
02:00PM 46.7667 -83.5500 210° Southwest 450 518 47,000  Level Toronto Center
02:01PM 46.6667 -83.6333 210° Southwest 450 518 47,000  Level Toronto Center
02:02PM 46.5500 -83.7500 215° Southwest 450 518 47,000  Level Toronto Center
02:03PM 46.4333 -83.8500 211° Southwest 450 518 47,000  Level Toronto Center
02:04PM 46.3167 -83.9333 206° Southwest 460 529 47,000  Level Toronto Center
02:05PM 46.2167 -84.0500 219° Southwest 460 529 47,000  Level Toronto Center
02:06PM 46.1167 -84.1333 210° Southwest 460 529 47,000  Level Toronto Center
02:07PM 46.0167 -84.2167 210° Southwest 460 529 47,000  Level Toronto Center
02:08PM 45.9000 -84.3000 206° Southwest 460 529 47,000  Level Toronto Center
02:09PM 45.8364 -84.3753 220° Southwest 457 526 47,000  Level Minneapolis Center
02:10PM 45.7047 -84.4869 211° Southwest 458 527 47,000  Level Minneapolis Center
02:11PM 45.5964 -84.5814 211° Southwest 457 526 47,000  Level Minneapolis Center
02:12PM 45.4867 -84.6739 211° Southwest 457 526 47,000  Level Minneapolis Center
02:13PM 45.3764 -84.7667 211° Southwest 460 529 47,000  Level Minneapolis Center
02:14PM 45.2661 -84.8586 210° Southwest 460 529 47,000  Level Minneapolis Center
02:15PM 45.1556 -84.9506 210° Southwest 459 528 47,000  Level Minneapolis Center
02:16PM 45.0433 -85.0428 210° Southwest 463 533 47,000  Level Minneapolis Center
02:17PM 44.9094 -85.1550 211° Southwest 464 534 47,000  Level Minneapolis Center
02:18PM 44.7969 -85.2442 209° Southwest 461 531 47,000  Level Minneapolis Center
02:19PM 44.6833 -85.3361 210° Southwest 466 536 47,000  Level Minneapolis Center
02:20PM 44.5711 -85.4281 210° Southwest 464 534 47,000  Level Minneapolis Center
02:21PM 44.4606 -85.5175 210° Southwest 457 526 47,000  Level Minneapolis Center
02:22PM 44.3511 -85.6056 210° Southwest 451 519 47,000  Level Minneapolis Center
02:23PM 44.2414 -85.6931 210° Southwest 452 520 47,000  Level Minneapolis Center
02:24PM 44.1306 -85.7814 210° Southwest 455 524 47,000  Level Minneapolis Center
02:25PM 43.9975 -85.8858 209° Southwest 460 529 47,000  Level Minneapolis Center
02:26PM 43.8875 -85.9733 210° Southwest 458 527 47,000  Level Minneapolis Center
02:27PM 43.7764 -86.0611 210° Southwest 460 529 47,000  Level Minneapolis Center
02:28PM 43.6878 -86.1308 210° Southwest 462 532 47,000  Level Chicago Center
02:29PM 43.5756 -86.2194 210° Southwest 467 537 47,000  Level Chicago Center
02:30PM 43.4631 -86.3064 209° Southwest 469 540 47,000  Level Chicago Center
02:31PM 43.3511 -86.3939 210° Southwest 469 540 47,000  Level Chicago Center
02:32PM 43.2406 -86.4814 210° Southwest 466 536 47,000  Level Chicago Center
02:33PM 43.1053 -86.5828 209° Southwest 470 541 47,000  Level Chicago Center
02:34PM 42.9939 -86.6686 209° Southwest 467 537 47,000  Level Chicago Center
02:35PM 42.8831 -86.7528 209° Southwest 465 535 47,000  Level Chicago Center
02:36PM 42.7667 -86.8372 208° Southwest 480 552 47,000  Level Chicago Center
02:37PM 42.6558 -86.9225 210° Southwest 466 536 47,000  Level Chicago Center
02:38PM 42.5314 -87.0169 209° Southwest 460 529 47,000  Level Chicago Center
02:40PM 42.4172 -87.1011 209° Southwest 468 539 47,000  Level Chicago Center
02:41PM 42.3017 -87.1864 209° Southwest 475 547 47,000  Level Chicago Center
02:42PM 42.1886 -87.2703 209° Southwest 471 542 47,000  Level Chicago Center
02:43PM 42.0500 -87.3719 209° Southwest 474 545 47,000  Level Chicago Center
02:44PM 41.9361 -87.4550 208° Southwest 470 541 47,000  Level Chicago Center
02:45PM 41.8211 -87.5400 209° Southwest 480 552 47,000  Level Chicago Center
02:46PM 41.7081 -87.6219 208° Southwest 469 540 47,000  Level Chicago Center
02:47PM 41.5936 -87.7047 208° Southwest 469 540 47,000  Level Chicago Center
02:48PM 41.4558 -87.8033 208° Southwest 465 535 47,000  Level Chicago Center
02:49PM 41.3369 -87.8850 207° Southwest 475 547 47,000  Level Chicago Center
02:50PM 41.2203 -87.9719 209° Southwest 477 549 47,000  Level Chicago Center
02:51PM 41.1050 -88.0536 208° Southwest 469 540 47,000  Level Chicago Center
02:52PM 40.9925 -88.1347 209° Southwest 463 533 47,000  Level Chicago Center
02:53PM 40.8783 -88.2144 208° Southwest 463 533 47,000  Level Chicago Center
02:54PM 40.7653 -88.2944 208° Southwest 463 533 47,000  Level Chicago Center
02:55PM 40.6294 -88.3878 208° Southwest 462 532 47,000  Level Chicago Center
02:56PM 40.5178 -88.4661 208° Southwest 460 529 47,000  Level Chicago Center
02:57PM 40.4108 -88.5406 208° Southwest 458 527 47,000  Level Chicago Center
02:58PM 40.2958 -88.6206 208° Southwest 463 533 47,000  Level Chicago Center
02:59PM 40.1822 -88.6997 208° Southwest 467 537 47,000  Level Chicago Center
03:00PM 40.0656 -88.7778 207° Southwest 463 533 47,000  Level Chicago Center
03:01PM 39.9258 -88.8739 208° Southwest 473 544 47,000  Level Chicago Center
03:02PM 39.8594 -88.9183 207° Southwest 462 532 47,000  Level Kansas City Center
03:03PM 39.7444 -88.9967 208° Southwest 463 533 47,000  Level Kansas City Center
03:04PM 39.6308 -89.0756 208° Southwest 462 532 47,000  Level Kansas City Center
03:05PM 39.5183 -89.1539 208° Southwest 459 528 47,000  Level Kansas City Center
03:06PM 39.4072 -89.2289 208° Southwest 461 531 47,000  Level Kansas City Center
03:07PM 39.2722 -89.3239 209° Southwest 461 531 47,000  Level Kansas City Center
03:08PM 39.1572 -89.4019 208° Southwest 462 532 47,000  Level Kansas City Center
03:09PM 39.0364 -89.4872 209° Southwest 462 532 47,000  Level Kansas City Center
03:10PM 38.9233 -89.5639 208° Southwest 462 532 47,000  Level Kansas City Center
03:11PM 38.8017 -89.6456 208° Southwest 459 528 47,000  Level Kansas City Center
03:12PM 38.7006 -89.7128 207° Southwest 472 543 47,000  Level Kansas City Center
03:13PM 38.5864 -89.7886 207° Southwest 465 535 47,000  Level Kansas City Center
03:14PM 38.4722 -89.8661 208° Southwest 461 531 47,000  Level Kansas City Center
03:15PM 38.3350 -89.9575 208° Southwest 461 531 47,000  Level Kansas City Center
03:16PM 38.2217 -90.0336 208° Southwest 458 527 47,000  Level Kansas City Center
03:17PM 38.1053 -90.1092 207° Southwest 465 535 47,000  Level Kansas City Center
03:18PM 37.9933 -90.1850 208° Southwest 456 525 47,000  Level Kansas City Center
03:19PM 37.8800 -90.2597 207° Southwest 458 527 47,000  Level Kansas City Center
03:20PM 37.7672 -90.3383 209° Southwest 461 531 47,000  Level Kansas City Center
03:21PM 37.6533 -90.4131 207° Southwest 461 531 47,000  Level Kansas City Center
03:22PM 37.5397 -90.4861 207° Southwest 462 532 47,000  Level Kansas City Center
03:23PM 37.4025 -90.5733 207° Southwest 462 532 47,000  Level Kansas City Center
03:24PM 37.2853 -90.6503 208° Southwest 459 528 47,000  Level Kansas City Center
03:26PM 37.1714 -90.7222 207° Southwest 458 527 47,000  Level Kansas City Center
03:27PM 37.0586 -90.7947 207° Southwest 458 527 47,000  Level Kansas City Center
03:28PM 36.9467 -90.8658 207° Southwest 453 521 47,000  Level Kansas City Center
03:29PM 36.8342 -90.9375 207° Southwest 453 521 47,000  Level Kansas City Center
03:30PM 36.7192 -91.0108 207° Southwest 460 529 47,000  Level Kansas City Center
03:31PM 36.6053 -91.0836 207° Southwest 462 532 47,000  Level Kansas City Center
03:32PM 36.4667 -91.1750 208° Southwest 470 541 47,000  Level Memphis Center
03:33PM 36.3514 -91.2458 206° Southwest 470 541 47,000  Level Memphis Center
03:34PM 36.2364 -91.3192 207° Southwest 470 541 47,000  Level Memphis Center
03:35PM 36.1231 -91.3900 207° Southwest 470 541 47,000  Level Memphis Center
03:36PM 36.0078 -91.4603 206° Southwest 465 535 47,000  Level Memphis Center
03:37PM 35.9008 -91.5256 206° Southwest 451 519 47,000  Level Memphis Center
03:38PM 35.7814 -91.5853 202° Southwest 451 519 47,000  Level Memphis Center
03:39PM 35.6517 -91.6217 193° South 463 533 47,000  Level Memphis Center
03:40PM 35.5325 -91.6581 194° South 468 539 47,000  Level Memphis Center
03:41PM 35.4069 -91.6944 193° South 462 532 47,000  Level Memphis Center
03:42PM 35.2814 -91.7331 194° South 462 532 47,000  Level Memphis Center
03:43PM 35.1558 -91.7667 192° South 462 532 47,000  Level Memphis Center
03:44PM 35.0367 -91.8053 195° South 462 532 47,000  Level Memphis Center
03:45PM 34.9153 -91.8411 194° South 454 522 47,000  Level Memphis Center
03:46PM 34.7936 -91.8744 193° South 454 522 47,000  Level Memphis Center
03:47PM 34.6703 -91.9128 194° South 454 522 47,000  Level Memphis Center
03:48PM 34.5467 -91.9483 193° South 454 522 47,000  Level Memphis Center
03:49PM 34.4231 -91.9836 193° South 454 522 47,000  Level Memphis Center
03:50PM 34.2994 -92.0217 194° South 454 522 47,000  Level Memphis Center
03:51PM 34.1081 -92.0783 194° South 442 509 47,000  Level Fort Worth Center
03:52PM 33.9864 -92.1133 193° South 447 514 47,000  Level Fort Worth Center
03:53PM 33.8606 -92.1486 193° South 459 528 47,000  Level Fort Worth Center
03:54PM 33.7389 -92.1833 193° South 459 528 47,000  Level Fort Worth Center
03:55PM 33.6150 -92.2183 193° South 459 528 47,000  Level Fort Worth Center
03:56PM 33.4975 -92.2525 194° South 454 522 47,000  Level Fort Worth Center
03:57PM 33.3758 -92.2844 192° South 448 516 47,000  Level Fort Worth Center
03:58PM 33.2519 -92.3189 193° South 455 524 47,000  Level Fort Worth Center
03:59PM 33.1261 -92.3536 193° South 455 524 47,000  Level Fort Worth Center
04:00PM 33.0044 -92.3903 194° South 455 524 47,000  Level Fort Worth Center
04:01PM 32.8847 -92.4217 192° South 455 524 47,000  Level Fort Worth Center
04:02PM 32.7628 -92.4531 192° South 455 524 47,000  Level Fort Worth Center
04:04PM 32.6100 -92.5008 195° South 435 501 47,000  Level Houston Center
04:05PM 32.4819 -92.5375 194° South 434 499 47,000  Level Houston Center
04:06PM 32.3619 -92.5697 193° South 442 509 47,000  Level Houston Center
04:07PM 32.2422 -92.6025 193° South 443 510 47,000  Level Houston Center
04:08PM 32.1233 -92.6364 194° South 443 510 47,000  Level Houston Center
04:09PM 32.0044 -92.6781 197° South 449 517 47,000  Level Houston Center
04:10PM 31.9044 -92.7622 216° Southwest 448 516 47,000  Level Houston Center
04:11PM 31.8206 -92.8661 226° Southwest 439 505 47,000  Level Houston Center
04:12PM 31.7369 -92.9739 228° Southwest 446 513 47,000  Level Houston Center
04:13PM 31.6550 -93.0794 228° Southwest 442 509 47,000  Level Houston Center
04:14PM 31.5564 -93.2061 228° Southwest 440 506 47,000  Level Houston Center
04:15PM 31.4847 -93.2978 227° Southwest 437 503 47,000 -98 Level Houston Center
04:16PM 31.3858 -93.4225 227° Southwest 440 506 46,800 -1,415 Descending Houston Center
04:17PM 31.3006 -93.5283 227° Southwest 447 514 44,100 -2,585 Descending Houston Center
04:18PM 31.2214 -93.6261 227° Southwest 450 518 41,500 -2,488 Descending Houston Center
04:19PM 31.1403 -93.7286 227° Southwest 436 502 39,000 -2,439 Descending Houston Center
04:20PM 31.0586 -93.8289 226° Southwest 430 495 36,500 -2,705 Descending Houston Center
04:21PM 30.9594 -93.9508 227° Southwest 433 498 33,500 -2,732 Descending Houston Center
04:22PM 30.8764 -94.0533 227° Southwest 437 503 30,900 -2,585 Descending Houston Center
04:23PM 30.7889 -94.1603 226° Southwest 456 525 28,200 -2,537 Descending Houston Center
04:24PM 30.7067 -94.2586 226° Southwest 432 497 25,700 -2,390 Descending Houston Center
04:25PM 30.6286 -94.3575 227° Southwest 420 483 23,300 -2,526 Descending Houston Center
04:26PM 30.5475 -94.4544 226° Southwest 408 470 20,900 -2,530 Descending Houston Center
04:27PM 30.5117 -94.4956 225° Southwest 403 464 19,800 -1,886 Descending Houston Center
04:27PM 30.4769 -94.5442 230° Southwest 387 445 18,700 -2,176 Descending Houston Center
04:28PM 30.4061 -94.6558 234° Southwest 375 432 16,100 -2,341 Descending Houston Center
04:29PM 30.3453 -94.7494 233° Southwest 367 422 13,900 -1,512 Descending Houston Center
04:30PM 30.2847 -94.8436 233° Southwest 364 419 13,000 -823 Descending Houston Center
04:31PM 30.2239 -94.9381 233° Southwest 367 422 12,200 -927 Descending Houston Center
04:32PM 30.1644 -95.0294 233° Southwest 359 413 11,100 -1,024 Descending Houston Center
04:33PM 30.0917 -95.0875 215° Southwest 319 367 10,100 -537 Descending Houston Center
04:34PM 29.9992 -95.1292 201° Southwest 299 344 10,000 -49 Descending Houston Center
04:35PM 29.9228 -95.1619 200° South 296 341 10,000 -600 Level Houston Center
04:37PM 29.8350 -95.2000 201° Southwest 248 285 8,600 -1,317 Descending Houston Center
04:37PM 29.7925 -95.2186 201° Southwest 250 288 7,300 -1,290 Descending Houston Center
04:38PM 29.7306 -95.2450 200° South 242 278 6,300 -634 Descending Houston Center
04:39PM 29.6717 -95.2767 205° Southwest 240 276 6,000 -195 Descending Houston Center
04:41PM 29.6567 -95.3647 259° West 236 272 5,900 -1,016 Descending Houston Center
04:42PM 29.6772 -95.4286 290° West 226 260 3,900 -1,805 Descending Houston Center
04:43PM 29.7194 -95.4131 18° North 220 253 2,200 -1,024 Descending Houston Center
04:44PM 29.7150 -95.3614 96° East 192 221 1,800 -532 Descending Houston Center
04:45PM 29.6847 -95.3261 135° Southeast 167 192 1,100 -683 Descending Houston Center
04:46PM 29.6581 -95.2939 134° Southeast 153 176 400 -488 Descending Houston Center
04:47PM 29.6325 -95.2628 133° Southeast 140 161 100 -290 Descending Houston Center

Login

Don't have an account? Register now (free) for customized features, flight alerts, and more!